createdAt,value
2019-03-01T00:00:29.172Z,11.40
2019-03-01T00:02:56.101Z,11.20
2019-03-01T00:05:38.901Z,11.30
2019-03-01T00:08:09.979Z,11.20
2019-03-01T00:11:17.679Z,11.20
2019-03-01T00:13:56.696Z,11.10
2019-03-01T00:16:52.169Z,10.90
2019-03-01T00:19:43.448Z,10.80
2019-03-01T00:22:34.665Z,10.80
2019-03-01T00:25:15.604Z,10.70
2019-03-01T00:28:24.472Z,10.70
2019-03-01T00:31:28.446Z,10.60
2019-03-01T00:34:05.456Z,10.60
2019-03-01T00:36:45.924Z,10.70
2019-03-01T00:39:37.262Z,10.70
2019-03-01T00:42:20.695Z,10.60
2019-03-01T00:44:48.858Z,10.60
2019-03-01T00:47:14.615Z,10.70
2019-03-01T00:49:41.550Z,10.60
2019-03-01T00:52:09.297Z,10.60
2019-03-01T00:54:36.221Z,10.60
2019-03-01T00:57:03.406Z,10.50
2019-03-01T00:59:30.371Z,10.50
2019-03-01T01:01:57.297Z,10.40
2019-03-01T01:04:24.235Z,10.50
2019-03-01T01:06:51.177Z,10.40
2019-03-01T01:09:19.765Z,10.40
2019-03-01T01:11:46.701Z,10.40
2019-03-01T01:14:13.637Z,10.50
2019-03-01T01:16:40.562Z,10.40
2019-03-01T01:19:07.499Z,10.40
2019-03-01T01:21:34.475Z,10.40
2019-03-01T01:24:01.397Z,10.30
2019-03-01T01:26:28.328Z,11.60
2019-03-01T01:28:55.293Z,10.40
2019-03-01T01:31:22.223Z,10.40
2019-03-01T01:33:49.144Z,10.30
2019-03-01T01:36:16.098Z,10.30
2019-03-01T01:38:43.019Z,10.30
2019-03-01T01:41:09.953Z,10.30
2019-03-01T01:43:36.900Z,10.30
2019-03-01T01:46:03.832Z,10.20
2019-03-01T01:48:30.752Z,10.20
2019-03-01T01:50:57.689Z,10.10
2019-03-01T01:53:24.604Z,10.10
2019-03-01T01:55:51.528Z,10.10
2019-03-01T01:58:18.486Z,8.30
2019-03-01T02:00:45.414Z,10.20
2019-03-01T02:03:12.340Z,10.10
2019-03-01T02:05:39.273Z,10.10
2019-03-01T02:08:06.196Z,10.10
2019-03-01T02:10:33.533Z,10.20
2019-03-01T02:13:00.491Z,10.20
2019-03-01T02:15:27.431Z,10.20
2019-03-01T02:17:54.381Z,10.30
2019-03-01T02:20:21.318Z,10.20
2019-03-01T02:22:48.241Z,10.30
2019-03-01T02:25:15.181Z,10.20
2019-03-01T02:27:42.120Z,10.20
2019-03-01T02:30:13.130Z,10.20
2019-03-01T02:32:43.279Z,10.20
2019-03-01T02:35:12.154Z,10.20
2019-03-01T02:37:39.067Z,10.20
2019-03-01T02:40:06.881Z,10.50
2019-03-01T02:42:33.806Z,10.20
2019-03-01T02:45:00.716Z,10.20
2019-03-01T02:47:27.660Z,10.20
2019-03-01T02:49:54.596Z,10.20
2019-03-01T02:52:21.513Z,10.20
2019-03-01T02:54:48.470Z,9.90
2019-03-01T02:57:15.386Z,10.20
2019-03-01T02:59:42.304Z,10.00
2019-03-01T03:02:09.258Z,10.20
2019-03-01T03:04:36.193Z,10.20
2019-03-01T03:07:11.197Z,10.20
2019-03-01T03:09:38.144Z,10.20
2019-03-01T03:12:05.653Z,10.30
2019-03-01T03:14:32.593Z,10.20
2019-03-01T03:16:59.588Z,10.20
2019-03-01T03:19:26.517Z,10.20
2019-03-01T03:21:53.462Z,10.20
2019-03-01T03:24:20.385Z,10.20
2019-03-01T03:26:48.561Z,10.10
2019-03-01T03:29:14.277Z,10.10
2019-03-01T03:31:41.210Z,10.00
2019-03-01T03:34:08.137Z,10.00
2019-03-01T03:36:35.077Z,10.00
2019-03-01T03:39:02.005Z,10.10
2019-03-01T03:41:28.939Z,10.00
2019-03-01T03:43:55.889Z,9.90
2019-03-01T03:46:22.835Z,9.70
2019-03-01T03:48:49.790Z,9.80
2019-03-01T03:51:16.703Z,9.80
2019-03-01T03:53:43.629Z,9.80
2019-03-01T03:56:10.586Z,9.80
2019-03-01T03:58:37.517Z,9.80
2019-03-01T04:01:04.452Z,9.80
2019-03-01T04:03:31.377Z,9.80
2019-03-01T04:05:58.350Z,9.70
2019-03-01T04:08:25.250Z,7.80
2019-03-01T04:10:52.197Z,9.70
2019-03-01T04:13:19.655Z,9.70
2019-03-01T04:15:46.590Z,9.70
2019-03-01T04:18:13.511Z,9.80
2019-03-01T04:20:40.456Z,9.60
2019-03-01T04:23:07.372Z,9.60
2019-03-01T04:25:34.297Z,9.60
2019-03-01T04:28:01.240Z,9.60
2019-03-01T04:30:28.172Z,9.70
2019-03-01T04:32:55.104Z,9.70
2019-03-01T04:35:22.044Z,9.70
2019-03-01T04:37:48.972Z,9.70
2019-03-01T04:40:15.909Z,9.70
2019-03-01T04:42:42.835Z,9.80
2019-03-01T04:45:10.448Z,9.80
2019-03-01T04:47:37.351Z,9.80
2019-03-01T04:50:04.905Z,9.70
2019-03-01T04:52:34.628Z,9.70
2019-03-01T04:55:01.551Z,9.80
2019-03-01T04:57:28.503Z,9.70
2019-03-01T04:59:55.432Z,9.80
2019-03-01T05:02:22.359Z,9.80
2019-03-01T05:04:49.324Z,9.80
2019-03-01T05:07:16.259Z,9.90
2019-03-01T05:09:43.184Z,9.80
2019-03-01T05:12:10.151Z,9.80
2019-03-01T05:14:37.361Z,9.80
2019-03-01T05:17:04.310Z,9.80
2019-03-01T05:19:31.257Z,9.90
2019-03-01T05:21:58.200Z,9.80
2019-03-01T05:24:25.128Z,9.70
2019-03-01T05:26:52.084Z,9.70
2019-03-01T05:29:18.995Z,9.80
2019-03-01T05:31:45.931Z,9.70
2019-03-01T05:34:12.899Z,9.60
2019-03-01T05:36:39.831Z,9.70
2019-03-01T05:39:06.749Z,9.70
2019-03-01T05:41:33.714Z,9.70
2019-03-01T05:44:00.627Z,9.60
2019-03-01T05:46:27.532Z,9.70
2019-03-01T05:48:54.505Z,9.70
2019-03-01T05:51:21.427Z,9.70
2019-03-01T05:53:48.364Z,9.70
2019-03-01T05:56:15.332Z,9.80
2019-03-01T05:58:46.084Z,9.70
2019-03-01T06:01:20.381Z,9.80
2019-03-01T06:03:57.304Z,9.80
2019-03-01T06:06:31.839Z,9.80
2019-03-01T06:09:11.462Z,9.30
2019-03-01T06:12:07.625Z,9.30
2019-03-01T06:14:52.030Z,9.10
2019-03-01T06:17:35.821Z,8.80
2019-03-01T06:20:20.144Z,8.60
2019-03-01T06:22:56.962Z,8.50
2019-03-01T06:26:03.148Z,8.40
2019-03-01T06:28:41.635Z,8.60
2019-03-01T06:31:55.784Z,8.60
2019-03-01T06:34:37.793Z,8.60
2019-03-01T06:37:33.698Z,8.70
2019-03-01T06:40:21.452Z,8.70
2019-03-01T06:42:58.724Z,8.70
2019-03-01T06:45:36.911Z,8.70
2019-03-01T06:48:03.811Z,8.70
2019-03-01T06:50:36.459Z,8.70
2019-03-01T06:53:03.405Z,8.80
2019-03-01T06:55:37.603Z,8.80
2019-03-01T06:58:06.865Z,8.80
2019-03-01T07:00:37.284Z,8.80
2019-03-01T07:03:04.228Z,8.80
2019-03-01T07:05:31.179Z,8.80
2019-03-01T07:07:58.107Z,8.90
2019-03-01T07:10:25.028Z,9.00
2019-03-01T07:12:51.976Z,9.00
2019-03-01T07:15:20.374Z,9.00
2019-03-01T07:17:47.312Z,9.00
2019-03-01T07:20:14.248Z,9.00
2019-03-01T07:22:41.168Z,9.00
2019-03-01T07:25:08.091Z,9.10
2019-03-01T07:27:35.033Z,9.10
2019-03-01T07:30:01.959Z,9.00
2019-03-01T07:32:28.875Z,8.90
2019-03-01T07:34:55.844Z,8.90
2019-03-01T07:37:22.776Z,8.90
2019-03-01T07:39:49.708Z,9.20
2019-03-01T07:42:16.657Z,8.90
2019-03-01T07:44:43.599Z,8.90
2019-03-01T07:47:10.505Z,10.40
2019-03-01T07:49:37.456Z,8.90
2019-03-01T07:52:04.973Z,8.90
2019-03-01T07:54:31.318Z,8.90
2019-03-01T07:56:58.263Z,8.90
2019-03-01T07:59:25.176Z,9.00
2019-03-01T08:01:52.122Z,8.90
2019-03-01T08:04:19.078Z,8.90
2019-03-01T08:06:48.818Z,8.90
2019-03-01T08:09:13.019Z,8.90
2019-03-01T08:11:39.983Z,8.80
2019-03-01T08:14:06.904Z,8.80
2019-03-01T08:16:35.177Z,8.80
2019-03-01T08:19:02.129Z,8.70
2019-03-01T08:21:29.067Z,8.90
2019-03-01T08:23:56.020Z,8.80
2019-03-01T08:26:22.980Z,8.80
2019-03-01T08:28:49.919Z,8.80
2019-03-01T08:31:17.440Z,8.90
2019-03-01T08:33:43.787Z,9.00
2019-03-01T08:36:10.728Z,9.10
2019-03-01T08:38:37.646Z,9.10
2019-03-01T08:41:04.571Z,9.00
2019-03-01T08:43:31.518Z,9.20
2019-03-01T08:45:58.440Z,9.20
2019-03-01T08:48:25.386Z,9.30
2019-03-01T08:50:52.301Z,9.30
2019-03-01T08:53:19.229Z,9.30
2019-03-01T08:55:46.164Z,9.40
2019-03-01T08:58:13.089Z,9.40
2019-03-01T09:00:40.121Z,9.40
2019-03-01T09:03:12.124Z,9.50
2019-03-01T09:05:39.105Z,9.50
2019-03-01T09:08:05.999Z,9.60
2019-03-01T09:10:33.682Z,9.60
2019-03-01T09:12:59.880Z,9.60
2019-03-01T09:15:26.800Z,9.60
2019-03-01T09:17:55.230Z,9.70
2019-03-01T09:20:22.143Z,9.70
2019-03-01T09:22:49.077Z,9.70
2019-03-01T09:25:16.047Z,9.80
2019-03-01T09:27:42.972Z,9.70
2019-03-01T09:30:13.959Z,9.70
2019-03-01T09:32:40.889Z,9.60
2019-03-01T09:35:26.499Z,9.70
2019-03-01T09:37:53.424Z,9.60
2019-03-01T09:40:20.348Z,9.70
2019-03-01T09:42:47.492Z,9.70
2019-03-01T09:45:14.342Z,9.60
2019-03-01T09:47:41.127Z,9.70
2019-03-01T09:50:08.071Z,9.70
2019-03-01T09:52:35.021Z,9.70
2019-03-01T09:55:01.983Z,9.60
2019-03-01T09:57:28.916Z,9.60
2019-03-01T09:59:55.874Z,9.70
2019-03-01T10:02:22.796Z,9.70
2019-03-01T10:04:49.723Z,9.70
2019-03-01T10:07:16.656Z,9.70
2019-03-01T10:09:44.451Z,9.80
2019-03-01T10:12:11.369Z,9.70
2019-03-01T10:14:38.372Z,9.70
2019-03-01T10:17:05.314Z,9.70
2019-03-01T10:19:35.009Z,9.80
2019-03-01T10:22:01.965Z,9.70
2019-03-01T10:24:28.891Z,9.70
2019-03-01T10:26:55.859Z,9.60
2019-03-01T10:29:22.872Z,9.60
2019-03-01T10:31:49.815Z,9.50
2019-03-01T10:34:16.751Z,9.50
2019-03-01T10:36:43.697Z,9.60
2019-03-01T10:39:13.679Z,9.50
2019-03-01T10:41:40.619Z,9.50
2019-03-01T10:44:07.593Z,9.50
2019-03-01T10:46:34.526Z,9.50
2019-03-01T10:49:01.461Z,9.60
2019-03-01T10:51:28.396Z,9.70
2019-03-01T10:53:55.333Z,9.70
2019-03-01T10:56:22.283Z,9.70
2019-03-01T10:58:49.228Z,9.70
2019-03-01T11:01:16.182Z,9.70
2019-03-01T11:03:43.123Z,9.70
2019-03-01T11:06:10.075Z,9.60
2019-03-01T11:08:37.057Z,9.40
2019-03-01T11:11:03.984Z,9.50
2019-03-01T11:13:30.917Z,9.60
2019-03-01T11:15:57.874Z,9.60
2019-03-01T11:18:24.816Z,9.50
2019-03-01T11:20:53.365Z,9.40
2019-03-01T11:23:20.269Z,9.40
2019-03-01T11:25:47.191Z,9.60
2019-03-01T11:28:14.136Z,9.50
2019-03-01T11:30:41.073Z,9.50
2019-03-01T11:33:07.998Z,9.50
2019-03-01T11:35:34.947Z,9.50
2019-03-01T11:38:01.888Z,9.20
2019-03-01T11:40:30.731Z,9.20
2019-03-01T11:42:57.732Z,9.10
2019-03-01T11:45:24.688Z,9.10
2019-03-01T11:47:51.604Z,9.00
2019-03-01T11:50:19.972Z,8.90
2019-03-01T11:52:46.908Z,8.90
2019-03-01T11:55:13.916Z,8.80
2019-03-01T11:57:40.844Z,8.90
2019-03-01T12:00:09.625Z,8.90
2019-03-01T12:02:36.555Z,9.00
2019-03-01T12:05:04.763Z,9.00
2019-03-01T12:07:31.680Z,9.10
2019-03-01T12:09:58.611Z,9.10
2019-03-01T12:12:25.557Z,9.10
2019-03-01T12:14:52.488Z,9.20
2019-03-01T12:17:19.517Z,9.00
2019-03-01T12:19:46.458Z,9.00
2019-03-01T12:22:17.429Z,9.10
2019-03-01T12:24:41.824Z,9.10
2019-03-01T12:27:08.821Z,9.20
2019-03-01T12:29:35.734Z,9.10
2019-03-01T12:32:02.661Z,9.20
2019-03-01T12:34:29.617Z,9.30
2019-03-01T12:36:56.567Z,9.30
2019-03-01T12:39:23.500Z,9.40
2019-03-01T12:41:50.440Z,9.40
2019-03-01T12:44:17.353Z,9.50
2019-03-01T12:46:44.293Z,9.50
2019-03-01T12:49:11.230Z,9.40
2019-03-01T12:51:38.151Z,9.30
2019-03-01T12:54:05.065Z,9.40
2019-03-01T12:56:32.011Z,9.40
2019-03-01T12:58:58.934Z,9.50
2019-03-01T13:01:26.195Z,9.50
2019-03-01T13:03:53.157Z,9.50
2019-03-01T13:06:20.116Z,9.60
2019-03-01T13:08:47.709Z,9.50
2019-03-01T13:11:16.143Z,9.70
2019-03-01T13:13:40.953Z,9.60
2019-03-01T13:16:07.899Z,9.60
2019-03-01T13:18:34.840Z,9.60
2019-03-01T13:21:01.791Z,9.80
2019-03-01T13:23:29.174Z,9.80
2019-03-01T13:25:56.117Z,10.00
2019-03-01T13:28:23.055Z,10.10
2019-03-01T13:30:50.039Z,10.10
2019-03-01T13:33:16.981Z,10.20
2019-03-01T13:35:43.908Z,10.20
2019-03-01T13:38:10.854Z,10.20
2019-03-01T13:40:37.821Z,10.20
2019-03-01T13:43:04.751Z,10.20
2019-03-01T13:45:31.692Z,10.10
2019-03-01T13:47:58.622Z,10.10
2019-03-01T13:50:25.568Z,10.30
2019-03-01T13:52:52.493Z,10.40
2019-03-01T13:55:22.211Z,10.50
2019-03-01T13:57:50.028Z,10.80
2019-03-01T14:00:15.044Z,11.30
2019-03-01T14:02:43.024Z,11.60
2019-03-01T14:05:08.944Z,11.70
2019-03-01T14:07:35.880Z,11.80
2019-03-01T14:10:04.816Z,11.60
2019-03-01T14:12:29.816Z,11.50
2019-03-01T14:14:59.310Z,11.50
2019-03-01T14:17:24.503Z,11.50
2019-03-01T14:19:50.612Z,11.70
2019-03-01T14:22:17.616Z,11.60
2019-03-01T14:24:45.160Z,11.60
2019-03-01T14:27:12.431Z,11.50
2019-03-01T14:29:39.364Z,11.30
2019-03-01T14:32:06.321Z,11.20
2019-03-01T14:34:33.252Z,11.10
2019-03-01T14:37:00.196Z,10.90
2019-03-01T14:39:27.153Z,10.90
2019-03-01T14:41:54.118Z,10.80
2019-03-01T14:44:21.029Z,10.80
2019-03-01T14:46:48.020Z,10.70
2019-03-01T14:49:14.932Z,10.70
2019-03-01T14:51:46.587Z,10.60
2019-03-01T14:54:09.890Z,10.50
2019-03-01T14:56:40.089Z,10.30
2019-03-01T14:59:15.208Z,10.30
2019-03-01T15:02:04.785Z,10.20
2019-03-01T15:04:31.720Z,10.20
2019-03-01T15:06:58.647Z,10.10
2019-03-01T15:09:25.582Z,10.20
2019-03-01T15:11:52.525Z,10.30
2019-03-01T15:14:19.443Z,10.40
2019-03-01T15:16:46.469Z,10.30
2019-03-01T15:19:13.421Z,10.30
2019-03-01T15:21:40.337Z,10.20
2019-03-01T15:24:07.253Z,10.30
2019-03-01T15:26:35.396Z,10.30
2019-03-01T15:29:02.330Z,10.30
2019-03-01T15:31:29.228Z,10.20
2019-03-01T15:33:56.172Z,10.00
2019-03-01T15:36:23.088Z,9.80
2019-03-01T15:38:50.028Z,9.80
2019-03-01T15:41:16.961Z,9.80
2019-03-01T15:43:43.893Z,9.60
2019-03-01T15:46:11.587Z,9.40
2019-03-01T15:48:39.183Z,9.50
2019-03-01T15:51:06.701Z,9.30
2019-03-01T15:53:31.707Z,9.50
2019-03-01T15:55:58.643Z,9.50
2019-03-01T15:58:25.563Z,9.50
2019-03-01T16:00:52.502Z,9.50
2019-03-01T16:03:19.448Z,9.40
2019-03-01T16:05:46.364Z,9.40
2019-03-01T16:08:13.826Z,9.40
2019-03-01T16:10:41.176Z,9.40
2019-03-01T16:13:11.758Z,9.50
2019-03-01T16:15:38.650Z,9.50
2019-03-01T16:18:01.977Z,9.60
2019-03-01T16:20:29.286Z,9.60
2019-03-01T16:22:56.116Z,9.60
2019-03-01T16:25:23.068Z,9.70
2019-03-01T16:27:50.714Z,9.80
2019-03-01T16:30:17.650Z,9.80
2019-03-01T16:32:49.561Z,9.90
2019-03-01T16:35:16.240Z,10.00
2019-03-01T16:37:38.729Z,9.80
2019-03-01T16:40:08.241Z,9.90
2019-03-01T16:42:38.504Z,9.80
2019-03-01T16:45:02.338Z,9.70
2019-03-01T16:47:29.269Z,9.60
2019-03-01T16:49:56.209Z,9.50
2019-03-01T16:52:23.125Z,9.50
2019-03-01T16:54:51.548Z,9.50
2019-03-01T16:57:18.575Z,9.40
2019-03-01T16:59:44.019Z,9.40
2019-03-01T17:02:10.946Z,9.50
2019-03-01T17:04:37.885Z,9.50
2019-03-01T17:07:04.818Z,9.50
2019-03-01T17:09:31.764Z,9.50
2019-03-01T17:11:58.711Z,9.50
2019-03-01T17:14:25.645Z,9.50
2019-03-01T17:16:52.590Z,9.60
2019-03-01T17:19:20.563Z,9.60
2019-03-01T17:21:50.746Z,9.60
2019-03-01T17:24:15.463Z,9.50
2019-03-01T17:26:40.389Z,9.50
2019-03-01T17:29:07.652Z,9.50
2019-03-01T17:31:34.593Z,9.50
2019-03-01T17:34:01.524Z,9.60
2019-03-01T17:36:28.460Z,9.60
2019-03-01T17:38:55.393Z,9.60
2019-03-01T17:41:22.319Z,9.60
2019-03-01T17:43:49.247Z,9.70
2019-03-01T17:46:16.202Z,9.80
2019-03-01T17:48:43.110Z,9.80
2019-03-01T17:51:10.046Z,9.70
2019-03-01T17:53:37.018Z,9.70
2019-03-01T17:56:03.940Z,9.70
2019-03-01T17:58:30.871Z,9.70
2019-03-01T18:00:58.862Z,9.70
2019-03-01T18:03:24.775Z,9.70
2019-03-01T18:05:51.740Z,9.70
2019-03-01T18:08:18.715Z,9.60
2019-03-01T18:10:45.649Z,9.50
2019-03-01T18:13:12.601Z,9.50
2019-03-01T18:15:39.576Z,9.50
2019-03-01T18:18:08.864Z,9.40
2019-03-01T18:20:34.026Z,9.40
2019-03-01T18:23:02.214Z,9.40
2019-03-01T18:25:27.310Z,9.20
2019-03-01T18:27:54.244Z,9.20
2019-03-01T18:30:22.715Z,9.10
2019-03-01T18:32:49.636Z,9.20
2019-03-01T18:35:16.560Z,9.30
2019-03-01T18:37:43.517Z,9.20
2019-03-01T18:40:13.533Z,9.20
2019-03-01T18:42:38.044Z,9.10
2019-03-01T18:45:07.160Z,9.20
2019-03-01T18:47:31.602Z,9.30
2019-03-01T18:49:58.550Z,9.20
2019-03-01T18:52:25.497Z,9.20
2019-03-01T18:54:52.446Z,9.20
2019-03-01T18:57:19.435Z,9.30
2019-03-01T18:59:46.371Z,9.30
2019-03-01T19:02:13.300Z,9.30
2019-03-01T19:04:40.240Z,9.30
2019-03-01T19:07:07.384Z,9.30
2019-03-01T19:09:36.221Z,9.30
2019-03-01T19:12:01.260Z,9.20
2019-03-01T19:14:28.208Z,9.20
2019-03-01T19:16:55.139Z,9.20
2019-03-01T19:19:24.467Z,9.20
2019-03-01T19:21:49.470Z,9.20
2019-03-01T19:24:15.940Z,9.10
2019-03-01T19:26:42.868Z,9.20
2019-03-01T19:29:09.812Z,9.20
2019-03-01T19:31:37.392Z,9.10
2019-03-01T19:34:04.327Z,9.20
2019-03-01T19:36:31.289Z,9.20
2019-03-01T19:39:00.318Z,9.10
2019-03-01T19:41:25.168Z,9.00
2019-03-01T19:43:57.443Z,9.10
2019-03-01T19:46:19.041Z,9.00
2019-03-01T19:48:45.967Z,9.10
2019-03-01T19:51:12.937Z,9.10
2019-03-01T19:53:39.863Z,9.10
2019-03-01T19:56:06.798Z,9.10
2019-03-01T19:58:33.735Z,9.20
2019-03-01T20:01:00.659Z,9.10
2019-03-01T20:03:27.588Z,9.10
2019-03-01T20:05:54.539Z,9.00
2019-03-01T20:08:22.048Z,8.90
2019-03-01T20:10:50.889Z,8.90
2019-03-01T20:13:16.397Z,8.80
2019-03-01T20:15:46.020Z,6.90
2019-03-01T20:18:10.865Z,8.60
2019-03-01T20:20:36.797Z,8.50
2019-03-01T20:23:03.714Z,8.40
2019-03-01T20:25:30.639Z,8.40
2019-03-01T20:27:57.579Z,8.40
2019-03-01T20:30:28.776Z,8.30
2019-03-01T20:32:52.193Z,7.70
2019-03-01T20:35:19.119Z,8.40
2019-03-01T20:37:46.066Z,8.30
2019-03-01T20:40:13.046Z,8.30
2019-03-01T20:42:39.993Z,8.30
2019-03-01T20:45:10.539Z,8.50
2019-03-01T20:47:37.465Z,8.50
2019-03-01T20:50:04.533Z,8.50
2019-03-01T20:52:31.454Z,8.60
2019-03-01T20:55:00.659Z,8.60
2019-03-01T20:57:27.013Z,8.60
2019-03-01T20:59:52.274Z,8.70
2019-03-01T21:02:19.218Z,8.70
2019-03-01T21:04:53.295Z,8.70
2019-03-01T21:07:15.651Z,8.60
2019-03-01T21:09:40.508Z,6.70
2019-03-01T21:12:06.965Z,8.70
2019-03-01T21:14:33.906Z,8.70
2019-03-01T21:17:00.928Z,8.60
2019-03-01T21:19:27.889Z,8.80
2019-03-01T21:21:54.895Z,8.80
2019-03-01T21:24:23.025Z,8.70
2019-03-01T21:26:51.209Z,8.70
2019-03-01T21:29:15.763Z,8.70
2019-03-01T21:31:42.706Z,8.70
2019-03-01T21:34:10.245Z,8.70
2019-03-01T21:36:37.227Z,8.70
2019-03-01T21:39:04.849Z,8.70
2019-03-01T21:41:31.332Z,8.70
2019-03-01T21:43:58.277Z,8.70
2019-03-01T21:46:25.244Z,8.60
2019-03-01T21:48:52.201Z,8.50
2019-03-01T21:51:19.961Z,8.70
2019-03-01T21:53:46.092Z,8.60
2019-03-01T21:56:13.100Z,8.70
2019-03-01T21:58:42.016Z,8.60
2019-03-01T22:01:07.086Z,8.50
2019-03-01T22:03:33.901Z,8.70
2019-03-01T22:06:00.863Z,8.60
2019-03-01T22:08:27.776Z,8.60
2019-03-01T22:10:54.771Z,8.50
2019-03-01T22:13:21.680Z,8.50
2019-03-01T22:15:48.627Z,8.50
2019-03-01T22:18:15.560Z,7.80
2019-03-01T22:20:44.841Z,8.50
2019-03-01T22:23:09.817Z,8.50
2019-03-01T22:25:38.013Z,8.50
2019-03-01T22:28:03.309Z,8.50
2019-03-01T22:30:30.273Z,7.30
2019-03-01T22:32:57.323Z,8.50
2019-03-01T22:35:24.608Z,7.70
2019-03-01T22:37:51.649Z,8.60
2019-03-01T22:40:18.596Z,8.50
2019-03-01T22:42:45.843Z,8.50
2019-03-01T22:45:13.738Z,8.50
2019-03-01T22:47:40.465Z,8.20
2019-03-01T22:50:08.654Z,8.40
2019-03-01T22:52:35.573Z,8.40
2019-03-01T22:55:02.814Z,8.50
2019-03-01T22:57:29.541Z,8.50
2019-03-01T22:59:56.495Z,8.50
2019-03-01T23:02:24.031Z,8.60
2019-03-01T23:04:50.978Z,8.50
2019-03-01T23:07:17.887Z,8.50
2019-03-01T23:09:46.539Z,8.40
2019-03-01T23:12:11.786Z,8.50
2019-03-01T23:14:38.723Z,8.60
2019-03-01T23:17:05.664Z,8.40
2019-03-01T23:19:32.605Z,8.40
2019-03-01T23:21:59.536Z,8.40
2019-03-01T23:24:26.542Z,8.30
2019-03-01T23:26:56.522Z,8.30
2019-03-01T23:29:20.429Z,8.20
2019-03-01T23:31:47.380Z,8.30
2019-03-01T23:34:14.306Z,8.10
2019-03-01T23:36:41.665Z,8.30
2019-03-01T23:39:08.622Z,8.20
2019-03-01T23:41:35.524Z,8.20
2019-03-01T23:44:02.715Z,8.80
2019-03-01T23:46:29.436Z,8.20
2019-03-01T23:49:05.876Z,8.20
2019-03-01T23:51:23.272Z,8.10
2019-03-01T23:53:50.219Z,8.20
2019-03-01T23:56:17.152Z,8.20
2019-03-01T23:58:44.125Z,8.30
